createdAt,value
2022-08-17T00:02:26.547Z,25.23
2022-08-17T00:04:55.554Z,23.05
2022-08-17T00:07:23.021Z,26.38
2022-08-17T00:09:49.963Z,22.05
2022-08-17T00:12:42.703Z,23.13
2022-08-17T00:15:05.820Z,27.25
2022-08-17T00:17:35.448Z,25.88
2022-08-17T00:20:03.449Z,24.30
2022-08-17T00:22:33.564Z,26.85
2022-08-17T00:25:07.383Z,27.08
2022-08-17T00:27:35.594Z,24.13
2022-08-17T00:30:04.081Z,23.67
2022-08-17T00:33:13.793Z,23.88
2022-08-17T00:35:31.538Z,27.23
2022-08-17T00:37:58.709Z,27.83
2022-08-17T00:40:25.587Z,23.95
2022-08-17T00:42:53.513Z,22.27
2022-08-17T00:45:22.604Z,23.88
2022-08-17T00:47:49.656Z,30.58
2022-08-17T00:50:19.841Z,22.10
2022-08-17T00:52:58.160Z,22.92
2022-08-17T00:55:25.918Z,27.45
2022-08-17T00:57:58.604Z,25.92
2022-08-17T01:00:30.060Z,23.67
2022-08-17T01:03:12.014Z,24.33
2022-08-17T01:05:42.328Z,25.10
2022-08-17T01:08:13.616Z,24.17
2022-08-17T01:10:59.736Z,26.85
2022-08-17T01:13:41.722Z,26.08
2022-08-17T01:16:22.986Z,22.77
2022-08-17T01:18:54.857Z,27.70
2022-08-17T01:21:33.426Z,23.45
2022-08-17T01:24:01.213Z,28.90
2022-08-17T01:26:30.494Z,26.92
2022-08-17T01:28:57.482Z,24.88
2022-08-17T01:31:30.134Z,28.65
2022-08-17T01:34:00.620Z,26.08
2022-08-17T01:36:29.437Z,24.15
2022-08-17T01:38:56.620Z,27.33
2022-08-17T01:41:24.397Z,22.65
2022-08-17T01:43:56.800Z,25.00
2022-08-17T01:46:28.871Z,23.83
2022-08-17T01:48:57.669Z,31.27
2022-08-17T01:51:27.769Z,22.02
2022-08-17T01:53:58.476Z,24.40
2022-08-17T01:56:27.974Z,25.35
2022-08-17T01:58:55.292Z,22.52
2022-08-17T02:01:26.811Z,24.48
2022-08-17T02:04:01.416Z,26.90
2022-08-17T02:06:52.799Z,24.58
2022-08-17T02:09:19.092Z,21.98
2022-08-17T02:11:50.216Z,24.55
2022-08-17T02:14:18.007Z,25.30
2022-08-17T02:16:45.112Z,29.02
2022-08-17T02:19:15.692Z,27.90
2022-08-17T02:21:46.113Z,25.88
2022-08-17T02:25:00.385Z,25.02
2022-08-17T02:27:07.456Z,26.13
2022-08-17T02:29:34.935Z,30.52
2022-08-17T02:32:01.990Z,27.50
2022-08-17T02:34:30.091Z,23.13
2022-08-17T02:36:57.246Z,25.35
2022-08-17T02:39:24.415Z,27.58
2022-08-17T02:42:01.584Z,29.27
2022-08-17T02:44:39.316Z,24.30
2022-08-17T02:47:09.158Z,24.35
2022-08-17T02:49:37.249Z,27.05
2022-08-17T02:52:06.649Z,23.85
2022-08-17T02:54:41.583Z,22.42
2022-08-17T02:57:10.616Z,26.25
2022-08-17T02:59:39.384Z,25.77
2022-08-17T03:02:07.952Z,24.02
2022-08-17T03:04:35.397Z,27.98
2022-08-17T03:07:04.221Z,24.02
2022-08-17T03:09:31.873Z,26.25
2022-08-17T03:12:11.131Z,24.90
2022-08-17T03:14:41.440Z,26.75
2022-08-17T03:17:16.916Z,27.02
2022-08-17T03:19:44.930Z,24.92
2022-08-17T03:22:36.426Z,20.13
2022-08-17T03:24:59.037Z,24.90
2022-08-17T03:27:26.469Z,29.73
2022-08-17T03:29:53.415Z,26.88
2022-08-17T03:32:20.870Z,22.02
2022-08-17T03:34:48.180Z,24.50
2022-08-17T03:37:15.230Z,26.45
2022-08-17T03:39:43.005Z,24.67
2022-08-17T03:42:31.900Z,24.00
2022-08-17T03:45:01.214Z,25.33
2022-08-17T03:47:47.321Z,24.08
2022-08-17T03:50:34.866Z,23.27
2022-08-17T03:53:24.936Z,27.23
2022-08-17T03:56:30.701Z,25.80
2022-08-17T03:58:57.734Z,31.27
2022-08-17T04:01:24.810Z,30.27
2022-08-17T04:03:51.722Z,24.75
2022-08-17T04:06:18.883Z,25.80
2022-08-17T04:08:45.930Z,25.50
2022-08-17T04:11:12.839Z,27.00
2022-08-17T04:13:39.925Z,25.02
2022-08-17T04:16:06.997Z,23.42
2022-08-17T04:18:33.839Z,30.20
2022-08-17T04:21:01.181Z,22.08
2022-08-17T04:23:32.991Z,22.15
2022-08-17T04:26:00.970Z,29.83
2022-08-17T04:28:28.086Z,28.17
2022-08-17T04:30:55.031Z,29.95
2022-08-17T04:33:24.828Z,25.60
2022-08-17T04:35:55.315Z,27.27
2022-08-17T04:38:24.932Z,22.17
2022-08-17T04:41:11.949Z,23.10
2022-08-17T04:43:41.204Z,23.13
2022-08-17T04:46:16.588Z,23.90
2022-08-17T04:48:46.702Z,24.75
2022-08-17T04:51:17.893Z,23.13
2022-08-17T04:53:53.827Z,22.95
2022-08-17T04:56:23.933Z,21.92
2022-08-17T04:58:52.782Z,24.33
2022-08-17T05:01:23.643Z,22.40
2022-08-17T05:03:53.396Z,24.02
2022-08-17T05:06:21.031Z,28.70
2022-08-17T05:08:48.152Z,20.85
2022-08-17T05:11:15.809Z,20.98
2022-08-17T05:13:42.779Z,18.75
2022-08-17T05:16:09.756Z,23.20
2022-08-17T05:18:40.220Z,21.10
2022-08-17T05:21:07.811Z,20.58
2022-08-17T05:23:41.769Z,17.67
2022-08-17T05:26:26.206Z,17.95
2022-08-17T05:28:57.106Z,23.13
2022-08-17T05:31:26.012Z,25.30
2022-08-17T05:33:53.469Z,16.70
2022-08-17T05:36:42.737Z,21.98
2022-08-17T05:39:07.798Z,18.30
2022-08-17T05:41:34.786Z,20.10
2022-08-17T05:44:05.314Z,18.92
2022-08-17T05:46:37.730Z,18.63
2022-08-17T05:49:11.062Z,18.13
2022-08-17T05:52:03.646Z,16.88
2022-08-17T05:54:43.051Z,15.32
2022-08-17T05:57:39.867Z,21.25
2022-08-17T06:00:30.049Z,23.73
2022-08-17T06:03:18.806Z,22.77
2022-08-17T06:05:45.771Z,19.23
2022-08-17T06:08:51.951Z,17.80
2022-08-17T06:11:38.981Z,17.90
2022-08-17T06:14:23.301Z,13.43
2022-08-17T06:17:00.547Z,18.90
2022-08-17T06:19:41.276Z,16.92
2022-08-17T06:22:10.784Z,15.67
2022-08-17T06:24:41.995Z,17.10
2022-08-17T06:27:18.855Z,13.55
2022-08-17T06:29:55.233Z,17.02
2022-08-17T06:32:23.244Z,14.68
2022-08-17T06:34:52.162Z,13.35
2022-08-17T06:37:29.991Z,16.85
2022-08-17T06:40:20.537Z,17.98
2022-08-17T06:43:08.728Z,14.77
2022-08-17T06:45:49.473Z,10.52
2022-08-17T06:48:25.014Z,13.75
2022-08-17T06:51:02.704Z,16.60
2022-08-17T06:53:40.401Z,11.55
2022-08-17T06:56:16.801Z,14.82
2022-08-17T06:58:44.933Z,12.52
2022-08-17T07:01:24.529Z,17.77
2022-08-17T07:04:11.987Z,15.10
2022-08-17T07:06:57.203Z,16.08
2022-08-17T07:09:31.289Z,17.48
2022-08-17T07:12:10.221Z,15.55
2022-08-17T07:14:52.872Z,17.83
2022-08-17T07:17:22.117Z,18.27
2022-08-17T07:20:13.270Z,18.30
2022-08-17T07:25:30.785Z,15.18
2022-08-17T07:28:00.828Z,11.57
2022-08-17T07:30:31.949Z,16.23
2022-08-17T07:33:17.896Z,13.07
2022-08-17T07:35:46.300Z,12.82
2022-08-17T07:38:24.339Z,16.95
2022-08-17T07:41:02.206Z,15.50
2022-08-17T07:43:32.063Z,16.20
2022-08-17T07:46:20.663Z,11.43
2022-08-17T07:48:51.276Z,11.55
2022-08-17T07:51:26.949Z,12.50
2022-08-17T07:54:14.197Z,17.08
2022-08-17T07:56:52.499Z,11.07
2022-08-17T07:59:24.135Z,12.57
2022-08-17T08:01:58.146Z,17.95
2022-08-17T08:04:59.107Z,13.02
2022-08-17T08:07:21.819Z,13.50
2022-08-17T08:10:07.938Z,11.65
2022-08-17T08:12:36.853Z,17.42
2022-08-17T08:15:21.874Z,12.50
2022-08-17T08:17:59.345Z,14.15
2022-08-17T08:20:54.045Z,13.50
2022-08-17T08:23:36.367Z,12.40
2022-08-17T08:26:33.899Z,9.27
2022-08-17T08:29:03.907Z,13.20
2022-08-17T08:31:51.559Z,13.57
2022-08-17T08:34:53.449Z,12.32
2022-08-17T08:37:42.886Z,12.35
2022-08-17T08:40:28.383Z,10.82
2022-08-17T08:43:10.876Z,13.38
2022-08-17T08:46:18.395Z,14.48
2022-08-17T08:49:17.055Z,11.02
2022-08-17T08:51:55.724Z,10.25
2022-08-17T08:54:31.701Z,12.68
2022-08-17T08:57:30.781Z,11.88
2022-08-17T09:00:17.448Z,10.52
2022-08-17T09:02:47.073Z,11.13
2022-08-17T09:05:48.424Z,13.30
2022-08-17T09:08:43.504Z,11.93
2022-08-17T09:11:24.605Z,12.68
2022-08-17T09:14:21.540Z,11.35
2022-08-17T09:17:29.881Z,12.38
2022-08-17T09:20:27.228Z,15.48
2022-08-17T09:23:08.083Z,14.20
2022-08-17T09:25:58.730Z,11.13
2022-08-17T09:28:35.044Z,13.95
2022-08-17T09:31:21.720Z,13.98
2022-08-17T09:33:49.219Z,11.15
2022-08-17T09:36:22.399Z,17.70
2022-08-17T09:39:01.651Z,14.52
2022-08-17T09:41:48.768Z,10.50
2022-08-17T09:44:27.043Z,11.50
2022-08-17T09:47:03.835Z,13.73
2022-08-17T09:49:38.409Z,13.30
2022-08-17T09:52:14.869Z,15.15
2022-08-17T09:54:46.756Z,10.55
2022-08-17T09:57:36.115Z,18.15
2022-08-17T10:00:27.002Z,14.18
2022-08-17T10:03:16.502Z,13.45
2022-08-17T10:05:56.714Z,10.65
2022-08-17T10:08:39.361Z,13.73
2022-08-17T10:11:15.347Z,12.45
2022-08-17T10:14:36.086Z,8.60
2022-08-17T10:17:15.877Z,10.45
2022-08-17T10:20:09.391Z,12.75
2022-08-17T10:23:18.207Z,10.25
2022-08-17T10:26:09.010Z,11.20
2022-08-17T10:29:13.431Z,16.00
2022-08-17T10:31:51.971Z,10.45
2022-08-17T10:34:41.817Z,15.32
2022-08-17T10:37:55.846Z,12.55
2022-08-17T10:40:46.219Z,12.30
2022-08-17T10:43:38.513Z,10.43
2022-08-17T10:46:30.671Z,14.82
2022-08-17T10:49:16.954Z,11.60
2022-08-17T10:51:47.977Z,10.43
2022-08-17T10:54:24.202Z,12.82
2022-08-17T10:56:58.202Z,14.40
2022-08-17T10:59:37.382Z,10.00
2022-08-17T11:02:12.433Z,10.40
2022-08-17T11:05:02.295Z,10.68
2022-08-17T11:07:35.177Z,12.60
2022-08-17T11:10:42.285Z,13.43
2022-08-17T11:13:21.914Z,12.15
2022-08-17T11:16:08.206Z,10.38
2022-08-17T11:19:10.064Z,12.20
2022-08-17T11:22:06.535Z,14.90
2022-08-17T11:24:37.400Z,10.52
2022-08-17T11:27:28.503Z,14.35
2022-08-17T11:30:01.548Z,14.02
2022-08-17T11:32:47.739Z,10.88
2022-08-17T11:35:22.026Z,9.65
2022-08-17T11:38:13.980Z,9.18
2022-08-17T11:41:08.128Z,12.13
2022-08-17T11:44:05.997Z,13.43
2022-08-17T11:47:07.189Z,13.45
2022-08-17T11:50:08.314Z,11.75
2022-08-17T11:52:47.497Z,11.77
2022-08-17T11:55:39.646Z,10.20
2022-08-17T11:58:17.847Z,9.98
2022-08-17T12:00:44.860Z,11.07
2022-08-17T12:03:26.634Z,11.82
2022-08-17T12:06:17.700Z,11.30
2022-08-17T12:08:52.292Z,10.32
2022-08-17T12:11:58.731Z,7.80
2022-08-17T12:15:08.426Z,11.63
2022-08-17T12:17:41.613Z,13.00
2022-08-17T12:20:12.481Z,16.42
2022-08-17T12:22:53.814Z,17.77
2022-08-17T12:28:04.789Z,12.52
2022-08-17T12:30:32.827Z,10.15
2022-08-17T12:33:00.803Z,7.75
2022-08-17T12:35:35.370Z,9.68
2022-08-17T12:38:07.521Z,13.07
2022-08-17T12:40:57.986Z,7.82
2022-08-17T12:45:59.651Z,11.43
2022-08-17T12:48:31.105Z,18.08
2022-08-17T12:53:35.201Z,14.10
2022-08-17T12:56:10.923Z,12.77
2022-08-17T12:58:49.232Z,10.45
2022-08-17T13:01:17.667Z,9.57
2022-08-17T13:03:49.537Z,11.30
2022-08-17T13:06:28.524Z,12.20
2022-08-17T13:08:55.837Z,12.30
2022-08-17T13:11:24.940Z,10.65
2022-08-17T13:13:56.302Z,12.20
2022-08-17T13:16:26.795Z,12.15
2022-08-17T13:19:06.351Z,11.07
2022-08-17T13:21:35.703Z,11.27
2022-08-17T13:24:10.128Z,11.88
2022-08-17T13:26:40.790Z,11.30
2022-08-17T13:29:31.468Z,15.00
2022-08-17T13:32:13.147Z,10.45
2022-08-17T13:35:13.829Z,10.52
2022-08-17T13:37:48.781Z,15.43
2022-08-17T13:40:15.960Z,16.40
2022-08-17T13:42:52.178Z,17.30
2022-08-17T13:45:36.341Z,14.55
2022-08-17T13:48:11.810Z,13.50
2022-08-17T13:51:01.634Z,11.55
2022-08-17T13:53:49.087Z,16.35
2022-08-17T13:56:44.526Z,15.00
2022-08-17T13:59:36.390Z,12.55
2022-08-17T14:02:14.874Z,11.50
2022-08-17T14:04:43.780Z,16.25
2022-08-17T14:07:13.616Z,13.35
2022-08-17T14:09:47.211Z,17.17
2022-08-17T14:12:17.304Z,15.07
2022-08-17T14:14:45.048Z,15.57
2022-08-17T14:17:12.853Z,14.75
2022-08-17T14:19:40.223Z,11.85
2022-08-17T14:22:11.640Z,10.68
2022-08-17T14:24:44.679Z,10.95
2022-08-17T14:27:12.571Z,13.45
2022-08-17T14:29:41.302Z,14.15
2022-08-17T14:32:18.231Z,11.52
2022-08-17T14:34:46.293Z,11.52
2022-08-17T14:37:13.562Z,11.82
2022-08-17T14:39:40.562Z,10.55
2022-08-17T14:42:08.543Z,15.07
2022-08-17T14:44:36.282Z,12.57
2022-08-17T14:47:04.517Z,12.98
2022-08-17T14:49:31.922Z,10.90
2022-08-17T14:52:00.640Z,13.93
2022-08-17T14:54:29.415Z,12.18
2022-08-17T14:57:22.818Z,14.60
2022-08-17T14:59:55.181Z,11.40
2022-08-17T15:02:30.908Z,9.35
2022-08-17T15:05:00.769Z,10.60
2022-08-17T15:07:30.479Z,9.68
2022-08-17T15:10:01.607Z,12.75
2022-08-17T15:12:33.080Z,10.00
2022-08-17T15:15:01.344Z,11.15
2022-08-17T15:17:45.212Z,13.30
2022-08-17T15:20:22.998Z,13.52
2022-08-17T15:22:50.621Z,15.60
2022-08-17T15:25:19.129Z,13.38
2022-08-17T15:27:46.437Z,13.40
2022-08-17T15:30:13.870Z,13.63
2022-08-17T15:32:47.500Z,14.10
2022-08-17T15:35:26.804Z,12.87
2022-08-17T15:38:11.223Z,12.82
2022-08-17T15:40:43.981Z,10.68
2022-08-17T15:43:17.433Z,16.35
2022-08-17T15:45:59.983Z,14.93
2022-08-17T15:48:41.333Z,10.98
2022-08-17T15:53:37.528Z,13.57
2022-08-17T15:56:05.825Z,16.88
2022-08-17T15:58:36.959Z,15.02
2022-08-17T16:01:16.458Z,15.43
2022-08-17T16:04:04.302Z,16.27
2022-08-17T16:06:34.799Z,16.58
2022-08-17T16:09:01.691Z,13.55
2022-08-17T16:11:28.601Z,14.15
2022-08-17T16:13:56.175Z,15.88
2022-08-17T16:16:23.804Z,16.67
2022-08-17T16:18:55.668Z,16.63
2022-08-17T16:21:26.187Z,14.77
2022-08-17T16:23:56.262Z,17.17
2022-08-17T16:26:23.646Z,13.57
2022-08-17T16:28:51.434Z,13.48
2022-08-17T16:31:18.588Z,15.30
2022-08-17T16:34:16.400Z,15.70
2022-08-17T16:36:32.697Z,17.05
2022-08-17T16:39:00.649Z,13.27
2022-08-17T16:41:45.757Z,17.40
2022-08-17T16:44:17.635Z,14.65
2022-08-17T16:46:46.253Z,15.88
2022-08-17T16:49:35.589Z,14.35
2022-08-17T16:52:03.363Z,14.57
2022-08-17T16:54:30.818Z,18.67
2022-08-17T16:56:57.874Z,15.93
2022-08-17T16:59:31.226Z,18.55
2022-08-17T17:02:11.276Z,17.38
2022-08-17T17:04:51.762Z,14.18
2022-08-17T17:07:36.236Z,23.65
2022-08-17T17:10:08.362Z,15.50
2022-08-17T17:13:01.571Z,18.98
2022-08-17T17:15:33.029Z,13.48
2022-08-17T17:18:07.012Z,17.83
2022-08-17T17:20:47.687Z,14.68
2022-08-17T17:23:37.880Z,12.77
2022-08-17T17:26:11.598Z,16.77
2022-08-17T17:28:54.330Z,20.83
2022-08-17T17:31:24.995Z,11.98
2022-08-17T17:33:57.464Z,20.33
2022-08-17T17:36:26.964Z,17.02
2022-08-17T17:39:18.446Z,16.80
2022-08-17T17:41:58.568Z,11.60
2022-08-17T17:44:33.129Z,20.33
2022-08-17T17:47:02.804Z,18.10
2022-08-17T17:49:34.419Z,17.38
2022-08-17T17:52:14.530Z,13.10
2022-08-17T17:55:13.128Z,22.05
2022-08-17T17:57:46.896Z,18.88
2022-08-17T18:00:21.974Z,21.40
2022-08-17T18:03:12.641Z,19.30
2022-08-17T18:06:29.797Z,15.68
2022-08-17T18:09:18.099Z,17.63
2022-08-17T18:12:00.048Z,19.63
2022-08-17T18:14:33.224Z,16.42
2022-08-17T18:17:02.167Z,22.35
2022-08-17T18:19:30.686Z,18.90
2022-08-17T18:22:14.540Z,17.75
2022-08-17T18:24:44.887Z,25.15
2022-08-17T18:27:49.518Z,18.98
2022-08-17T18:30:16.638Z,24.35
2022-08-17T18:32:46.630Z,17.73
2022-08-17T18:35:16.402Z,22.73
2022-08-17T18:37:45.196Z,24.77
2022-08-17T18:40:19.305Z,23.83
2022-08-17T18:42:55.625Z,23.48
2022-08-17T18:45:35.688Z,26.50
2022-08-17T18:48:03.006Z,23.90
2022-08-17T18:50:43.834Z,20.33
2022-08-17T18:53:34.651Z,20.00
2022-08-17T18:56:26.432Z,18.55
2022-08-17T18:59:03.566Z,26.70
2022-08-17T19:02:00.806Z,22.73
2022-08-17T19:04:36.792Z,25.40
2022-08-17T19:07:11.407Z,19.85
2022-08-17T19:09:44.978Z,21.77
2022-08-17T19:12:27.018Z,25.40
2022-08-17T19:14:57.189Z,21.80
2022-08-17T19:17:33.284Z,24.13
2022-08-17T19:20:12.967Z,24.02
2022-08-17T19:23:05.254Z,20.20
2022-08-17T19:25:41.187Z,18.52
2022-08-17T19:28:33.868Z,22.38
2022-08-17T19:31:13.647Z,23.05
2022-08-17T19:33:40.797Z,22.20
2022-08-17T19:36:24.024Z,24.50
2022-08-17T19:39:02.879Z,21.92
2022-08-17T19:41:59.467Z,24.23
2022-08-17T19:44:49.511Z,21.67
2022-08-17T19:47:53.283Z,21.52
2022-08-17T19:50:23.726Z,21.58
2022-08-17T19:53:09.528Z,24.08
2022-08-17T19:55:47.714Z,23.80
2022-08-17T19:58:27.781Z,19.48
2022-08-17T20:00:54.897Z,21.40
2022-08-17T20:03:45.023Z,24.27
2022-08-17T20:06:13.858Z,30.35
2022-08-17T20:08:55.262Z,23.63
2022-08-17T20:11:32.360Z,24.73
2022-08-17T20:14:08.058Z,27.33
2022-08-17T20:16:35.002Z,22.25
2022-08-17T20:19:11.262Z,23.70
2022-08-17T20:22:10.540Z,27.52
2022-08-17T20:24:43.619Z,21.85
2022-08-17T20:27:18.527Z,24.30
2022-08-17T20:30:00.601Z,21.45
2022-08-17T20:32:31.272Z,19.73
2022-08-17T20:35:25.892Z,22.77
2022-08-17T20:38:36.322Z,23.40
2022-08-17T20:41:03.964Z,25.13
2022-08-17T20:43:33.623Z,24.55
2022-08-17T20:46:17.871Z,27.38
2022-08-17T20:48:49.346Z,27.77
2022-08-17T20:53:53.530Z,24.98
2022-08-17T20:56:46.470Z,24.63
2022-08-17T20:59:25.889Z,27.38
2022-08-17T21:02:18.169Z,24.65
2022-08-17T21:04:55.282Z,29.08
2022-08-17T21:07:29.685Z,21.65
2022-08-17T21:10:25.879Z,26.30
2022-08-17T21:13:27.634Z,23.40
2022-08-17T21:16:16.581Z,24.80
2022-08-17T21:19:17.006Z,26.58
2022-08-17T21:22:07.553Z,33.90
2022-08-17T21:25:00.590Z,28.38
2022-08-17T21:27:43.919Z,24.92
2022-08-17T21:30:27.494Z,24.63
2022-08-17T21:33:16.340Z,35.83
2022-08-17T21:36:11.845Z,27.77
2022-08-17T21:38:47.884Z,22.75
2022-08-17T21:41:22.175Z,25.13
2022-08-17T21:43:52.519Z,25.15
2022-08-17T21:46:30.185Z,26.92
2022-08-17T21:49:13.614Z,27.08
2022-08-17T21:51:45.717Z,27.50
2022-08-17T21:54:27.304Z,29.77
2022-08-17T21:56:54.801Z,30.00
2022-08-17T21:59:27.472Z,26.58
2022-08-17T22:02:03.720Z,27.08
2022-08-17T22:04:37.361Z,29.80
2022-08-17T22:07:11.773Z,24.75
2022-08-17T22:09:50.062Z,26.73
2022-08-17T22:12:20.161Z,30.25
2022-08-17T22:15:00.439Z,29.97
2022-08-17T22:17:48.171Z,29.83
2022-08-17T22:20:20.353Z,30.25
2022-08-17T22:23:09.081Z,24.15
2022-08-17T22:25:57.439Z,28.05
2022-08-17T22:28:52.371Z,25.17
2022-08-17T22:31:28.506Z,27.95
2022-08-17T22:33:59.884Z,31.10
2022-08-17T22:36:30.886Z,26.08
2022-08-17T22:39:20.790Z,26.38
2022-08-17T22:41:48.305Z,25.23
2022-08-17T22:44:31.858Z,29.73
2022-08-17T22:47:00.975Z,28.95
2022-08-17T22:49:53.648Z,31.35
2022-08-17T22:52:29.162Z,25.85
2022-08-17T22:55:20.561Z,25.95
2022-08-17T22:58:07.343Z,32.00
2022-08-17T23:00:43.509Z,30.08
2022-08-17T23:03:26.003Z,29.17
2022-08-17T23:06:06.854Z,26.63
2022-08-17T23:08:42.527Z,24.90
2022-08-17T23:11:09.474Z,27.92
2022-08-17T23:13:37.714Z,33.45
2022-08-17T23:16:04.736Z,29.70
2022-08-17T23:18:31.682Z,27.10
2022-08-17T23:20:59.888Z,26.80
2022-08-17T23:23:26.855Z,30.08
2022-08-17T23:25:54.721Z,29.38
2022-08-17T23:28:21.974Z,27.52
2022-08-17T23:30:48.938Z,28.77
2022-08-17T23:33:26.741Z,29.77
2022-08-17T23:35:54.229Z,47.17
2022-08-17T23:38:21.992Z,28.92
2022-08-17T23:40:48.890Z,29.17
2022-08-17T23:43:24.212Z,30.48
2022-08-17T23:45:54.250Z,30.33
2022-08-17T23:48:35.084Z,27.83
2022-08-17T23:51:10.499Z,30.67
2022-08-17T23:53:42.010Z,27.65
2022-08-17T23:58:42.941Z,32.65
